sensor_id;sensor_type;location;lat;lon;timestamp;pressure;altitude;pressure_sealevel;temperature
51693;BMP280;37777;53.066;21.638;2023-05-31T00:05:01;101339.75;;;11.72
51693;BMP280;37777;53.066;21.638;2023-05-31T00:12:03;101342.16;;;11.44
51693;BMP280;37777;53.066;21.638;2023-05-31T00:19:06;101349.69;;;11.29
51693;BMP280;37777;53.066;21.638;2023-05-31T00:26:08;101330.78;;;11.12
51693;BMP280;37777;53.066;21.638;2023-05-31T00:33:11;101333.81;;;11.10
51693;BMP280;37777;53.066;21.638;2023-05-31T00:40:13;101337.03;;;11.04
51693;BMP280;37777;53.066;21.638;2023-05-31T00:47:15;101329.72;;;11.43
51693;BMP280;37777;53.066;21.638;2023-05-31T00:54:18;101339.69;;;11.60
51693;BMP280;37777;53.066;21.638;2023-05-31T01:01:20;101338.84;;;11.29
51693;BMP280;37777;53.066;21.638;2023-05-31T01:08:23;101330.53;;;10.87
51693;BMP280;37777;53.066;21.638;2023-05-31T01:15:32;101333.88;;;10.84
51693;BMP280;37777;53.066;21.638;2023-05-31T01:29:58;101339.50;;;10.44
51693;BMP280;37777;53.066;21.638;2023-05-31T01:37:01;101349.06;;;10.24
51693;BMP280;37777;53.066;21.638;2023-05-31T01:44:04;101346.81;;;10.17
51693;BMP280;37777;53.066;21.638;2023-05-31T01:51:08;101354.78;;;10.40
51693;BMP280;37777;53.066;21.638;2023-05-31T01:58:11;101355.69;;;10.18
51693;BMP280;37777;53.066;21.638;2023-05-31T02:05:14;101362.22;;;10.08
51693;BMP280;37777;53.066;21.638;2023-05-31T02:12:17;101356.28;;;9.88
51693;BMP280;37777;53.066;21.638;2023-05-31T02:19:19;101366.88;;;9.67
51693;BMP280;37777;53.066;21.638;2023-05-31T02:26:21;101356.94;;;9.54
51693;BMP280;37777;53.066;21.638;2023-05-31T02:33:24;101361.56;;;9.53
51693;BMP280;37777;53.066;21.638;2023-05-31T02:40:26;101363.84;;;9.60
51693;BMP280;37777;53.066;21.638;2023-05-31T02:47:28;101371.66;;;9.70
51693;BMP280;37777;53.066;21.638;2023-05-31T02:54:30;101380.47;;;9.53
51693;BMP280;37777;53.066;21.638;2023-05-31T03:01:32;101385.88;;;9.53
51693;BMP280;37777;53.066;21.638;2023-05-31T03:08:34;101380.00;;;9.51
51693;BMP280;37777;53.066;21.638;2023-05-31T03:15:36;101373.94;;;9.54
51693;BMP280;37777;53.066;21.638;2023-05-31T03:22:38;101383.31;;;9.48
51693;BMP280;37777;53.066;21.638;2023-05-31T03:29:41;101382.19;;;9.49
51693;BMP280;37777;53.066;21.638;2023-05-31T03:36:44;101386.09;;;9.66
51693;BMP280;37777;53.066;21.638;2023-05-31T03:43:46;101389.38;;;9.85
51693;BMP280;37777;53.066;21.638;2023-05-31T03:50:48;101382.72;;;10.09
51693;BMP280;37777;53.066;21.638;2023-05-31T03:57:50;101390.34;;;10.07
51693;BMP280;37777;53.066;21.638;2023-05-31T04:04:52;101391.69;;;10.79
51693;BMP280;37777;53.066;21.638;2023-05-31T04:11:54;101392.66;;;10.66
51693;BMP280;37777;53.066;21.638;2023-05-31T04:18:56;101407.94;;;10.62
51693;BMP280;37777;53.066;21.638;2023-05-31T04:25:58;101398.25;;;10.78
51693;BMP280;37777;53.066;21.638;2023-05-31T04:33:02;101401.50;;;11.37
51693;BMP280;37777;53.066;21.638;2023-05-31T04:40:07;101394.78;;;11.73
51693;BMP280;37777;53.066;21.638;2023-05-31T04:47:11;101396.09;;;11.96
51693;BMP280;37777;53.066;21.638;2023-05-31T04:54:13;101388.44;;;11.98
51693;BMP280;37777;53.066;21.638;2023-05-31T05:01:16;101381.50;;;11.80
51693;BMP280;37777;53.066;21.638;2023-05-31T05:08:18;101370.19;;;12.50
51693;BMP280;37777;53.066;21.638;2023-05-31T05:15:20;101386.31;;;12.25
51693;BMP280;37777;53.066;21.638;2023-05-31T05:22:22;101382.13;;;12.36
51693;BMP280;37777;53.066;21.638;2023-05-31T05:29:24;101381.59;;;12.76
51693;BMP280;37777;53.066;21.638;2023-05-31T05:36:27;101377.63;;;13.20
51693;BMP280;37777;53.066;21.638;2023-05-31T05:43:29;101376.81;;;13.31
51693;BMP280;37777;53.066;21.638;2023-05-31T05:50:32;101368.69;;;13.44
51693;BMP280;37777;53.066;21.638;2023-05-31T05:57:34;101364.69;;;13.53
51693;BMP280;37777;53.066;21.638;2023-05-31T06:04:36;101365.34;;;13.75
51693;BMP280;37777;53.066;21.638;2023-05-31T06:11:38;101367.34;;;14.15
51693;BMP280;37777;53.066;21.638;2023-05-31T06:18:40;101356.91;;;14.61
51693;BMP280;37777;53.066;21.638;2023-05-31T06:25:42;101361.50;;;14.89
51693;BMP280;37777;53.066;21.638;2023-05-31T06:32:44;101350.53;;;15.01
51693;BMP280;37777;53.066;21.638;2023-05-31T06:39:46;101347.09;;;15.04
51693;BMP280;37777;53.066;21.638;2023-05-31T06:46:48;101340.38;;;15.69
51693;BMP280;37777;53.066;21.638;2023-05-31T06:53:50;101340.94;;;15.78
51693;BMP280;37777;53.066;21.638;2023-05-31T07:00:52;101321.72;;;16.10
51693;BMP280;37777;53.066;21.638;2023-05-31T07:07:54;101324.53;;;16.14
51693;BMP280;37777;53.066;21.638;2023-05-31T07:14:56;101315.31;;;16.45
51693;BMP280;37777;53.066;21.638;2023-05-31T07:21:58;101320.47;;;16.50
51693;BMP280;37777;53.066;21.638;2023-05-31T07:29:01;101312.31;;;16.77
51693;BMP280;37777;53.066;21.638;2023-05-31T07:36:03;101306.75;;;16.97
51693;BMP280;37777;53.066;21.638;2023-05-31T07:43:05;101299.59;;;17.11
51693;BMP280;37777;53.066;21.638;2023-05-31T07:50:07;101297.13;;;17.33
51693;BMP280;37777;53.066;21.638;2023-05-31T07:57:09;101294.03;;;17.35
51693;BMP280;37777;53.066;21.638;2023-05-31T08:04:12;101292.31;;;17.53
51693;BMP280;37777;53.066;21.638;2023-05-31T08:11:14;101289.25;;;17.58
51693;BMP280;37777;53.066;21.638;2023-05-31T08:18:16;101284.31;;;17.71
51693;BMP280;37777;53.066;21.638;2023-05-31T08:25:18;101279.00;;;17.85
51693;BMP280;37777;53.066;21.638;2023-05-31T08:32:20;101276.78;;;17.98
51693;BMP280;37777;53.066;21.638;2023-05-31T08:39:22;101285.63;;;18.22
51693;BMP280;37777;53.066;21.638;2023-05-31T08:46:25;101274.94;;;18.58
51693;BMP280;37777;53.066;21.638;2023-05-31T08:53:28;101271.91;;;18.70
51693;BMP280;37777;53.066;21.638;2023-05-31T09:00:31;101267.72;;;18.91
51693;BMP280;37777;53.066;21.638;2023-05-31T09:07:33;101256.34;;;18.89
51693;BMP280;37777;53.066;21.638;2023-05-31T09:14:36;101258.81;;;19.15
51693;BMP280;37777;53.066;21.638;2023-05-31T09:21:42;101255.25;;;19.04
51693;BMP280;37777;53.066;21.638;2023-05-31T09:28:49;101238.88;;;19.26
51693;BMP280;37777;53.066;21.638;2023-05-31T09:35:56;101243.69;;;19.68
51693;BMP280;37777;53.066;21.638;2023-05-31T09:42:59;101243.31;;;19.70
51693;BMP280;37777;53.066;21.638;2023-05-31T09:50:01;101238.63;;;19.88
51693;BMP280;37777;53.066;21.638;2023-05-31T09:57:04;101240.19;;;20.14
51693;BMP280;37777;53.066;21.638;2023-05-31T10:04:07;101222.13;;;20.31
51693;BMP280;37777;53.066;21.638;2023-05-31T10:11:09;101215.06;;;20.41
51693;BMP280;37777;53.066;21.638;2023-05-31T10:18:16;101201.63;;;20.61
51693;BMP280;37777;53.066;21.638;2023-05-31T10:25:41;101209.47;;;20.70
51693;BMP280;37777;53.066;21.638;2023-05-31T10:32:50;101191.28;;;20.94
51693;BMP280;37777;53.066;21.638;2023-05-31T10:39:58;101185.34;;;21.10
51693;BMP280;37777;53.066;21.638;2023-05-31T10:47:03;101184.69;;;20.80
51693;BMP280;37777;53.066;21.638;2023-05-31T10:54:17;101177.22;;;20.81
51693;BMP280;37777;53.066;21.638;2023-05-31T11:01:19;101164.81;;;21.25
51693;BMP280;37777;53.066;21.638;2023-05-31T11:08:27;101158.78;;;21.41
51693;BMP280;37777;53.066;21.638;2023-05-31T11:15:40;101160.22;;;21.56
51693;BMP280;37777;53.066;21.638;2023-05-31T11:22:42;101159.97;;;21.85
51693;BMP280;37777;53.066;21.638;2023-05-31T11:36:48;101135.03;;;21.62
51693;BMP280;37777;53.066;21.638;2023-05-31T11:43:50;101119.84;;;21.88
51693;BMP280;37777;53.066;21.638;2023-05-31T11:50:54;101116.50;;;22.07
51693;BMP280;37777;53.066;21.638;2023-05-31T11:57:57;101104.03;;;22.30
51693;BMP280;37777;53.066;21.638;2023-05-31T12:04:59;101082.13;;;22.46
51693;BMP280;37777;53.066;21.638;2023-05-31T12:12:02;101090.06;;;22.44
51693;BMP280;37777;53.066;21.638;2023-05-31T12:19:11;101074.44;;;22.34
51693;BMP280;37777;53.066;21.638;2023-05-31T12:26:13;101068.19;;;22.30
51693;BMP280;37777;53.066;21.638;2023-05-31T12:33:15;101053.91;;;22.66
51693;BMP280;37777;53.066;21.638;2023-05-31T12:40:18;101044.28;;;22.77
51693;BMP280;37777;53.066;21.638;2023-05-31T12:47:24;101048.84;;;22.88
51693;BMP280;37777;53.066;21.638;2023-05-31T12:54:28;101040.22;;;23.09
51693;BMP280;37777;53.066;21.638;2023-05-31T13:01:31;101030.22;;;22.95
51693;BMP280;37777;53.066;21.638;2023-05-31T13:08:33;101016.28;;;23.26
51693;BMP280;37777;53.066;21.638;2023-05-31T13:15:35;101002.78;;;23.32
51693;BMP280;37777;53.066;21.638;2023-05-31T13:22:37;101003.13;;;23.34
51693;BMP280;37777;53.066;21.638;2023-05-31T13:29:40;100992.31;;;23.43
51693;BMP280;37777;53.066;21.638;2023-05-31T13:36:42;100972.75;;;23.34
51693;BMP280;37777;53.066;21.638;2023-05-31T13:43:44;100963.13;;;23.42
51693;BMP280;37777;53.066;21.638;2023-05-31T13:50:46;100956.31;;;23.67
51693;BMP280;37777;53.066;21.638;2023-05-31T13:57:48;100947.28;;;23.66
51693;BMP280;37777;53.066;21.638;2023-05-31T14:04:51;100935.25;;;23.93
51693;BMP280;37777;53.066;21.638;2023-05-31T14:11:53;100930.66;;;23.50
51693;BMP280;37777;53.066;21.638;2023-05-31T14:18:58;100921.81;;;23.75
51693;BMP280;37777;53.066;21.638;2023-05-31T14:26:00;100910.28;;;23.80
51693;BMP280;37777;53.066;21.638;2023-05-31T14:33:02;100903.47;;;24.01
51693;BMP280;37777;53.066;21.638;2023-05-31T14:40:06;100904.41;;;23.78
51693;BMP280;37777;53.066;21.638;2023-05-31T14:47:11;100903.22;;;24.12
51693;BMP280;37777;53.066;21.638;2023-05-31T14:54:13;100886.66;;;24.12
51693;BMP280;37777;53.066;21.638;2023-05-31T15:01:15;100877.25;;;24.26
51693;BMP280;37777;53.066;21.638;2023-05-31T15:08:17;100874.03;;;24.44
51693;BMP280;37777;53.066;21.638;2023-05-31T15:15:19;100864.53;;;24.28
51693;BMP280;37777;53.066;21.638;2023-05-31T15:22:21;100851.81;;;24.31
51693;BMP280;37777;53.066;21.638;2023-05-31T15:29:24;100847.19;;;24.11
51693;BMP280;37777;53.066;21.638;2023-05-31T15:36:26;100845.53;;;24.14
51693;BMP280;37777;53.066;21.638;2023-05-31T15:43:28;100833.75;;;24.43
51693;BMP280;37777;53.066;21.638;2023-05-31T15:50:31;100834.63;;;24.39
51693;BMP280;37777;53.066;21.638;2023-05-31T15:57:33;100823.88;;;24.41
51693;BMP280;37777;53.066;21.638;2023-05-31T16:04:35;100824.44;;;24.36
51693;BMP280;37777;53.066;21.638;2023-05-31T16:11:40;100814.72;;;24.45
51693;BMP280;37777;53.066;21.638;2023-05-31T16:18:44;100813.88;;;24.48
51693;BMP280;37777;53.066;21.638;2023-05-31T16:25:46;100815.81;;;24.18
51693;BMP280;37777;53.066;21.638;2023-05-31T16:32:49;100803.72;;;24.12
51693;BMP280;37777;53.066;21.638;2023-05-31T16:39:51;100800.63;;;24.10
51693;BMP280;37777;53.066;21.638;2023-05-31T16:46:53;100798.38;;;24.05
51693;BMP280;37777;53.066;21.638;2023-05-31T16:53:56;100788.13;;;23.89
51693;BMP280;37777;53.066;21.638;2023-05-31T17:00:58;100787.84;;;23.83
51693;BMP280;37777;53.066;21.638;2023-05-31T17:08:01;100773.00;;;23.60
51693;BMP280;37777;53.066;21.638;2023-05-31T17:15:03;100774.22;;;23.43
51693;BMP280;37777;53.066;21.638;2023-05-31T17:22:06;100768.09;;;23.15
51693;BMP280;37777;53.066;21.638;2023-05-31T17:29:08;100767.59;;;23.00
51693;BMP280;37777;53.066;21.638;2023-05-31T17:36:11;100745.47;;;23.04
51693;BMP280;37777;53.066;21.638;2023-05-31T17:43:13;100744.94;;;22.93
51693;BMP280;37777;53.066;21.638;2023-05-31T17:50:15;100735.59;;;22.87
51693;BMP280;37777;53.066;21.638;2023-05-31T17:57:18;100738.31;;;22.70
51693;BMP280;37777;53.066;21.638;2023-05-31T18:04:21;100735.66;;;22.43
51693;BMP280;37777;53.066;21.638;2023-05-31T18:11:23;100727.56;;;22.12
51693;BMP280;37777;53.066;21.638;2023-05-31T18:18:27;100723.88;;;21.72
51693;BMP280;37777;53.066;21.638;2023-05-31T18:25:31;100730.63;;;21.40
51693;BMP280;37777;53.066;21.638;2023-05-31T18:32:33;100730.56;;;21.16
51693;BMP280;37777;53.066;21.638;2023-05-31T18:39:39;100715.16;;;20.92
51693;BMP280;37777;53.066;21.638;2023-05-31T18:46:41;100709.59;;;20.61
51693;BMP280;37777;53.066;21.638;2023-05-31T18:53:43;100704.72;;;20.41
51693;BMP280;37777;53.066;21.638;2023-05-31T19:00:45;100718.28;;;20.18
51693;BMP280;37777;53.066;21.638;2023-05-31T19:07:48;100716.09;;;19.98
51693;BMP280;37777;53.066;21.638;2023-05-31T19:14:50;100721.00;;;19.69
51693;BMP280;37777;53.066;21.638;2023-05-31T19:21:52;100722.28;;;19.50
51693;BMP280;37777;53.066;21.638;2023-05-31T19:28:54;100712.63;;;19.20
51693;BMP280;37777;53.066;21.638;2023-05-31T19:35:56;100718.56;;;19.01
51693;BMP280;37777;53.066;21.638;2023-05-31T19:42:59;100710.38;;;18.90
51693;BMP280;37777;53.066;21.638;2023-05-31T19:50:01;100706.88;;;18.82
51693;BMP280;37777;53.066;21.638;2023-05-31T19:57:03;100718.25;;;18.66
51693;BMP280;37777;53.066;21.638;2023-05-31T20:04:05;100702.25;;;18.43
51693;BMP280;37777;53.066;21.638;2023-05-31T20:11:08;100709.72;;;18.21
51693;BMP280;37777;53.066;21.638;2023-05-31T20:18:11;100688.19;;;18.20
51693;BMP280;37777;53.066;21.638;2023-05-31T20:25:13;100692.88;;;17.91
51693;BMP280;37777;53.066;21.638;2023-05-31T20:32:15;100690.88;;;17.69
51693;BMP280;37777;53.066;21.638;2023-05-31T20:39:17;100683.44;;;17.52
51693;BMP280;37777;53.066;21.638;2023-05-31T20:46:19;100661.50;;;17.30
51693;BMP280;37777;53.066;21.638;2023-05-31T20:53:22;100654.81;;;17.24
51693;BMP280;37777;53.066;21.638;2023-05-31T21:00:24;100652.00;;;17.06
51693;BMP280;37777;53.066;21.638;2023-05-31T21:07:28;100646.00;;;16.72
51693;BMP280;37777;53.066;21.638;2023-05-31T21:14:30;100645.13;;;16.61
51693;BMP280;37777;53.066;21.638;2023-05-31T21:21:32;100641.78;;;16.26
51693;BMP280;37777;53.066;21.638;2023-05-31T21:28:52;100645.53;;;16.11
51693;BMP280;37777;53.066;21.638;2023-05-31T21:35:54;100634.31;;;15.71
51693;BMP280;37777;53.066;21.638;2023-05-31T21:42:56;100632.31;;;15.72
51693;BMP280;37777;53.066;21.638;2023-05-31T21:49:58;100634.94;;;15.61
51693;BMP280;37777;53.066;21.638;2023-05-31T21:57:00;100630.34;;;15.31
51693;BMP280;37777;53.066;21.638;2023-05-31T22:04:02;100638.25;;;15.10
51693;BMP280;37777;53.066;21.638;2023-05-31T22:11:04;100622.09;;;15.24
51693;BMP280;37777;53.066;21.638;2023-05-31T22:18:06;100627.09;;;15.18
51693;BMP280;37777;53.066;21.638;2023-05-31T22:25:15;100625.84;;;15.12
51693;BMP280;37777;53.066;21.638;2023-05-31T22:32:18;100629.25;;;15.06
51693;BMP280;37777;53.066;21.638;2023-05-31T22:39:20;100621.31;;;14.97
51693;BMP280;37777;53.066;21.638;2023-05-31T22:46:23;100618.53;;;14.90
51693;BMP280;37777;53.066;21.638;2023-05-31T22:53:25;100619.47;;;14.71
51693;BMP280;37777;53.066;21.638;2023-05-31T23:00:28;100611.41;;;14.28
51693;BMP280;37777;53.066;21.638;2023-05-31T23:07:30;100610.84;;;14.19
51693;BMP280;37777;53.066;21.638;2023-05-31T23:14:33;100607.47;;;14.25
51693;BMP280;37777;53.066;21.638;2023-05-31T23:21:35;100603.44;;;14.16
51693;BMP280;37777;53.066;21.638;2023-05-31T23:28:41;100598.34;;;14.14
51693;BMP280;37777;53.066;21.638;2023-05-31T23:35:44;100586.03;;;14.20
51693;BMP280;37777;53.066;21.638;2023-05-31T23:42:46;100570.69;;;14.08
51693;BMP280;37777;53.066;21.638;2023-05-31T23:49:48;100569.16;;;13.88
51693;BMP280;37777;53.066;21.638;2023-05-31T23:56:50;100571.97;;;13.91
